Time;durP1;ratioP1;P1;durP2;ratioP2;P2;SDS_P1;SDS_P2;PMS_P1;PMS_P2;Temp;Humidity;BMP_temperature;BMP_pressure;BME280_temperature;BME280_humidity;BME280_pressure;Samples;Min_cycle;Max_cycle;Signal;HPM_P1;HPM_P2
2022/04/22 00:00:26;;;;;;;13.82;6.50;;;10.30;99.90;;;;;;5075272;28;20029;-49
2022/04/22 00:02:51;;;;;;;13.88;6.82;;;10.30;99.90;;;;;;5075090;28;20409;-50
2022/04/22 00:05:17;;;;;;;12.13;6.20;;;10.20;99.90;;;;;;5074854;28;20040;-50
2022/04/22 00:07:43;;;;;;;14.32;6.57;;;10.20;99.90;;;;;;5075064;28;20190;-48
2022/04/22 00:10:10;;;;;;;13.00;5.93;;;10.20;99.90;;;;;;5075087;28;20039;-50
2022/04/22 00:12:37;;;;;;;11.07;6.38;;;10.10;99.90;;;;;;5074910;28;20111;-49
2022/04/22 00:15:03;;;;;;;10.82;6.30;;;10.10;99.90;;;;;;5074724;28;20540;-51
2022/04/22 00:17:29;;;;;;;11.30;6.43;;;10.10;99.90;;;;;;5074673;28;20071;-49
2022/04/22 00:19:54;;;;;;;15.07;6.20;;;10.00;99.90;;;;;;5074648;28;20113;-49
2022/04/22 00:22:20;;;;;;;11.50;6.05;;;9.90;99.90;;;;;;5071974;28;20037;-50
2022/04/22 00:24:46;;;;;;;12.40;6.47;;;10.00;99.90;;;;;;5054714;28;20033;-50
2022/04/22 00:27:11;;;;;;;13.88;6.57;;;9.90;99.90;;;;;;5054662;28;20124;-49
2022/04/22 00:29:37;;;;;;;11.32;6.72;;;9.80;99.90;;;;;;5054476;28;20068;-48
2022/04/22 00:32:03;;;;;;;13.30;6.75;;;9.80;99.90;;;;;;5054453;28;20400;-48
2022/04/22 00:34:29;;;;;;;13.65;6.88;;;9.80;99.90;;;;;;5054302;28;20040;-47
2022/04/22 00:36:55;;;;;;;11.65;6.60;;;9.70;99.90;;;;;;5054399;28;20048;-49
2022/04/22 00:39:20;;;;;;;16.58;6.65;;;9.70;99.90;;;;;;5054493;28;20180;-49
2022/04/22 00:41:46;;;;;;;16.05;6.90;;;9.60;99.90;;;;;;5069538;28;20448;-48
2022/04/22 00:44:12;;;;;;;15.23;6.50;;;9.60;99.90;;;;;;5064767;28;20123;-48
2022/04/22 00:46:37;;;;;;;11.77;6.65;;;9.60;99.90;;;;;;5072950;28;20062;-49
2022/04/22 00:49:03;;;;;;;13.52;6.55;;;9.60;99.90;;;;;;5074020;28;20070;-48
2022/04/22 00:51:30;;;;;;;11.70;6.38;;;9.50;99.90;;;;;;5074459;28;20051;-48
2022/04/22 00:53:55;;;;;;;17.92;7.10;;;9.50;99.90;;;;;;5074186;28;20076;-49
2022/04/22 00:56:21;;;;;;;11.60;6.10;;;9.50;99.90;;;;;;5074123;28;20122;-49
2022/04/22 00:58:49;;;;;;;19.02;7.38;;;9.50;99.90;;;;;;5073997;28;20119;-49
2022/04/22 01:01:15;;;;;;;12.95;6.55;;;9.50;99.90;;;;;;5073987;28;20374;-48
2022/04/22 01:11:58;;;;;;;13.30;6.88;;;9.40;99.90;;;;;;5073606;28;20051;-48
2022/04/22 01:14:24;;;;;;;13.30;7.57;;;9.40;99.90;;;;;;5073813;28;20049;-47
2022/04/22 01:16:51;;;;;;;12.82;7.00;;;9.40;99.90;;;;;;5073565;28;20404;-48
2022/04/22 01:19:17;;;;;;;13.98;7.10;;;9.40;99.90;;;;;;5073524;28;20493;-51
2022/04/22 01:21:42;;;;;;;16.98;6.80;;;9.40;99.90;;;;;;5073406;28;20072;-51
2022/04/22 01:24:08;;;;;;;14.38;6.85;;;9.40;99.90;;;;;;5056013;28;20059;-51
2022/04/22 01:26:34;;;;;;;15.00;7.40;;;9.40;99.90;;;;;;5053346;28;20082;-52
2022/04/22 01:29:02;;;;;;;13.35;6.53;;;9.40;99.90;;;;;;5053240;28;20044;-49
2022/04/22 01:31:28;;;;;;;11.98;7.57;;;9.30;99.90;;;;;;5053443;28;20049;-49
2022/04/22 01:33:53;;;;;;;15.15;7.32;;;9.30;99.90;;;;;;5053352;28;20428;-47
2022/04/22 01:36:20;;;;;;;14.38;7.18;;;9.30;99.90;;;;;;5053212;28;20432;-48
2022/04/22 01:38:45;;;;;;;13.68;6.97;;;9.30;99.90;;;;;;5053086;28;20424;-51
2022/04/22 01:41:11;;;;;;;12.45;6.40;;;9.20;99.90;;;;;;5068283;28;20052;-49
2022/04/22 01:43:37;;;;;;;13.63;8.32;;;9.20;99.90;;;;;;5058811;28;20404;-48
2022/04/22 01:46:04;;;;;;;16.02;7.32;;;9.20;99.90;;;;;;5073196;28;20477;-49
2022/04/22 01:48:30;;;;;;;14.18;7.47;;;9.10;99.90;;;;;;5071711;28;20040;-48
2022/04/22 01:50:58;;;;;;;15.98;7.00;;;9.10;99.90;;;;;;5072971;28;20051;-48
2022/04/22 01:53:24;;;;;;;14.73;7.05;;;9.10;99.90;;;;;;5071771;28;20177;-48
2022/04/22 01:55:49;;;;;;;14.95;6.65;;;9.00;99.90;;;;;;5072694;28;20069;-49
2022/04/22 01:58:15;;;;;;;11.35;7.00;;;8.90;99.90;;;;;;5072965;28;20068;-52
2022/04/22 02:00:41;;;;;;;13.13;7.03;;;8.90;99.90;;;;;;5072732;28;20040;-49
2022/04/22 02:03:06;;;;;;;12.77;6.95;;;8.80;99.90;;;;;;5073086;28;20037;-49
2022/04/22 02:05:33;;;;;;;14.30;7.35;;;8.80;99.90;;;;;;5072562;28;20401;-50
2022/04/22 02:07:59;;;;;;;11.68;6.18;;;8.70;99.90;;;;;;5072586;28;20044;-49
2022/04/22 02:10:25;;;;;;;11.32;6.55;;;8.60;99.90;;;;;;5071239;28;20048;-51
2022/04/22 02:12:50;;;;;;;11.85;6.97;;;8.60;99.90;;;;;;5072677;28;20048;-51
2022/04/22 02:15:18;;;;;;;12.48;6.28;;;8.60;99.90;;;;;;5072567;28;20043;-51
2022/04/22 02:17:44;;;;;;;10.75;6.15;;;8.60;99.90;;;;;;5071093;28;20516;-53
2022/04/22 02:20:11;;;;;;;13.70;6.53;;;8.60;99.90;;;;;;5054641;28;20079;-50
2022/04/22 02:22:37;;;;;;;14.05;7.22;;;8.50;99.90;;;;;;5067446;28;20495;-50
2022/04/22 02:25:03;;;;;;;13.73;6.68;;;8.40;99.90;;;;;;5052311;28;20496;-48
2022/04/22 02:30:13;;;;;;;15.60;6.90;;;8.40;99.90;;;;;;5052437;28;20094;-52
2022/04/22 02:32:39;;;;;;;14.30;7.07;;;8.30;99.90;;;;;;5052301;28;20033;-50
2022/04/22 02:35:05;;;;;;;12.85;6.63;;;8.30;99.90;;;;;;5052173;28;20047;-52
2022/04/22 02:37:30;;;;;;;12.13;6.40;;;8.30;99.90;;;;;;5052094;28;20124;-51
2022/04/22 02:39:56;;;;;;;13.05;7.13;;;8.30;99.90;;;;;;5052224;28;20119;-49
2022/04/22 02:47:51;;;;;;;11.85;6.90;;;8.20;99.90;;;;;;5071993;28;20164;-49
2022/04/22 02:50:16;;;;;;;13.95;6.55;;;8.20;99.90;;;;;;5071084;28;20516;-48
2022/04/22 02:52:42;;;;;;;15.35;7.13;;;8.20;99.90;;;;;;5072154;28;20063;-47
2022/04/22 02:55:08;;;;;;;14.70;6.20;;;8.20;99.90;;;;;;5072019;28;20047;-48
2022/04/22 02:57:33;;;;;;;13.18;7.00;;;8.20;99.90;;;;;;5072013;28;20075;-48
2022/04/22 02:59:59;;;;;;;12.50;6.40;;;8.10;99.90;;;;;;5072026;28;20046;-48
2022/04/22 03:02:25;;;;;;;12.43;6.35;;;8.10;99.90;;;;;;5071878;28;20447;-48
2022/04/22 03:04:50;;;;;;;13.25;6.72;;;8.10;99.90;;;;;;5071851;28;20139;-48
2022/04/22 03:07:16;;;;;;;15.52;7.43;;;8.10;99.90;;;;;;5072033;28;20036;-51
2022/04/22 03:09:42;;;;;;;12.10;5.68;;;8.00;99.90;;;;;;5072057;28;20040;-51
2022/04/22 03:12:08;;;;;;;12.65;5.93;;;8.10;99.90;;;;;;5071941;28;20040;-50
2022/04/22 03:14:34;;;;;;;11.63;5.85;;;8.00;99.90;;;;;;5072286;28;20043;-49
2022/04/22 03:17:00;;;;;;;14.13;6.15;;;8.00;99.90;;;;;;5071575;28;20045;-49
2022/04/22 03:19:25;;;;;;;9.38;5.65;;;8.00;99.90;;;;;;5071809;28;20172;-51
2022/04/22 03:21:51;;;;;;;13.57;6.22;;;8.00;99.90;;;;;;5071828;28;20044;-51
2022/04/22 03:24:17;;;;;;;12.93;6.50;;;8.00;99.90;;;;;;5052029;28;20080;-50
2022/04/22 03:26:42;;;;;;;11.30;5.88;;;7.90;99.90;;;;;;5052097;28;20045;-48
2022/04/22 03:29:08;;;;;;;12.80;6.50;;;7.90;99.90;;;;;;5054581;28;20130;-49
2022/04/22 03:31:34;;;;;;;12.45;6.65;;;7.90;99.90;;;;;;5055964;28;20067;-48
2022/04/22 03:33:59;;;;;;;12.13;6.07;;;7.90;99.90;;;;;;5055752;28;20066;-49
2022/04/22 03:36:25;;;;;;;11.48;6.63;;;7.90;99.90;;;;;;5070990;28;20045;-48
2022/04/22 03:38:50;;;;;;;12.10;5.85;;;7.90;99.90;;;;;;5055541;28;20033;-48
2022/04/22 03:41:16;;;;;;;12.98;6.88;;;7.90;99.90;;;;;;5055581;28;20177;-48
2022/04/22 03:43:42;;;;;;;13.50;6.80;;;7.80;99.90;;;;;;5061323;28;20527;-48
2022/04/22 03:46:08;;;;;;;11.57;5.80;;;7.80;99.90;;;;;;5075308;28;20043;-49
2022/04/22 03:48:34;;;;;;;11.38;6.40;;;7.80;99.90;;;;;;5075443;28;20044;-48
2022/04/22 03:50:59;;;;;;;10.88;5.90;;;7.80;99.90;;;;;;5075468;28;20071;-50
2022/04/22 03:53:25;;;;;;;10.32;5.57;;;7.70;99.90;;;;;;5074276;28;20049;-51
2022/04/22 03:55:51;;;;;;;10.95;6.07;;;7.70;99.90;;;;;;5075060;28;20048;-53
2022/04/22 03:58:17;;;;;;;11.45;6.07;;;7.70;99.90;;;;;;5074971;28;20041;-53
2022/04/22 04:00:47;;;;;;;10.52;5.90;;;7.70;99.90;;;;;;5074938;28;20044;-52
2022/04/22 04:03:15;;;;;;;12.18;6.43;;;7.70;99.90;;;;;;5074928;28;20562;-50
2022/04/22 04:05:47;;;;;;;10.43;5.88;;;7.70;99.90;;;;;;5073929;28;20447;-50
2022/04/22 04:08:13;;;;;;;13.13;5.72;;;7.70;99.90;;;;;;5074748;28;20132;-48
2022/04/22 04:16:28;;;;;;;9.73;5.72;;;7.70;99.90;;;;;;5051994;28;20053;-47
2022/04/22 04:23:14;;;;;;;11.80;6.22;;;7.60;99.90;;;;;;5052065;28;20041;-48
2022/04/22 04:24:23;;;;;;;12.25;5.95;;;7.50;99.90;;;;;;5053795;28;20436;-49
2022/04/22 04:26:49;;;;;;;10.75;5.88;;;7.50;99.90;;;;;;5054481;28;20049;-48
2022/04/22 04:29:15;;;;;;;10.98;5.97;;;7.50;99.90;;;;;;5054566;28;20120;-56
2022/04/22 04:31:41;;;;;;;10.93;5.28;;;7.50;99.90;;;;;;5070043;28;20124;-54
2022/04/22 04:34:06;;;;;;;10.45;5.55;;;7.50;99.90;;;;;;5069830;28;20125;-52
2022/04/22 04:36:32;;;;;;;9.32;4.80;;;7.40;99.90;;;;;;5054479;28;20048;-51
2022/04/22 04:38:58;;;;;;;14.50;4.55;;;7.40;99.90;;;;;;5053675;28;20063;-50
2022/04/22 04:41:23;;;;;;;9.77;5.05;;;7.40;99.90;;;;;;5069100;28;20041;-52
2022/04/22 04:43:49;;;;;;;9.88;5.05;;;7.40;99.90;;;;;;5061574;28;20040;-48
2022/04/22 04:46:15;;;;;;;9.13;4.70;;;7.40;99.90;;;;;;5074243;28;20040;-48
2022/04/22 04:48:40;;;;;;;9.10;5.28;;;7.50;99.90;;;;;;5072530;28;20044;-51
2022/04/22 04:51:06;;;;;;;10.68;5.03;;;7.40;99.90;;;;;;5073879;28;20045;-50
2022/04/22 04:53:32;;;;;;;9.38;4.90;;;7.40;99.90;;;;;;5073832;28;20044;-50
2022/04/22 04:55:58;;;;;;;11.18;5.07;;;7.40;99.90;;;;;;5073805;28;20032;-51
2022/04/22 04:58:23;;;;;;;13.73;4.70;;;7.50;99.90;;;;;;5074040;28;20370;-50
2022/04/22 05:00:49;;;;;;;8.18;4.20;;;7.50;99.90;;;;;;5073888;28;20154;-49
2022/04/22 05:03:15;;;;;;;9.00;4.45;;;7.50;99.90;;;;;;5073767;28;20048;-48
2022/04/22 05:05:41;;;;;;;10.07;4.70;;;7.60;99.90;;;;;;5073685;28;20040;-52
2022/04/22 05:08:07;;;;;;;10.68;4.90;;;7.50;99.90;;;;;;5073493;28;20036;-48
2022/04/22 05:10:34;;;;;;;8.55;4.10;;;7.60;99.90;;;;;;5073486;28;20044;-48
2022/04/22 05:13:01;;;;;;;9.63;4.38;;;7.60;99.90;;;;;;5073494;28;20090;-49
2022/04/22 05:15:27;;;;;;;11.20;4.45;;;7.60;99.90;;;;;;5073421;28;20101;-49
2022/04/22 05:17:54;;;;;;;7.82;4.55;;;7.60;99.90;;;;;;5073509;28;20086;-49
2022/04/22 05:20:25;;;;;;;8.82;4.72;;;7.70;99.90;;;;;;5072998;28;20037;-49
2022/04/22 05:22:51;;;;;;;13.00;4.30;;;7.70;99.90;;;;;;5063979;28;20072;-50
2022/04/22 05:25:17;;;;;;;7.80;3.95;;;7.60;99.90;;;;;;5052040;28;20077;-50
2022/04/22 05:27:43;;;;;;;9.40;4.63;;;7.70;99.90;;;;;;5051997;28;20489;-53
2022/04/22 05:32:55;;;;;;;8.93;4.03;;;7.80;99.90;;;;;;5051974;28;20056;-49
2022/04/22 05:35:23;;;;;;;9.00;4.55;;;7.80;99.90;;;;;;5051692;28;20041;-51
2022/04/22 05:37:50;;;;;;;8.02;3.38;;;7.90;99.90;;;;;;5051356;28;20037;-52
2022/04/22 05:40:20;;;;;;;8.60;3.90;;;7.90;99.90;;;;;;5051634;28;20179;-50
2022/04/22 05:42:47;;;;;;;9.38;4.85;;;8.00;99.90;;;;;;5051033;28;20057;-49
2022/04/22 05:45:15;;;;;;;7.30;3.75;;;8.00;99.90;;;;;;5069252;28;20052;-49
2022/04/22 05:47:41;;;;;;;7.28;3.30;;;8.10;99.90;;;;;;5071110;28;20050;-49
2022/04/22 05:50:10;;;;;;;7.40;3.65;;;8.20;99.90;;;;;;5069656;28;20044;-52
2022/04/22 05:52:39;;;;;;;8.40;3.97;;;8.20;99.90;;;;;;5071311;28;20147;-49
2022/04/22 05:55:08;;;;;;;10.57;3.53;;;8.30;99.90;;;;;;5071066;28;20054;-48
2022/04/22 05:57:34;;;;;;;10.68;3.70;;;8.40;99.90;;;;;;5071131;28;20049;-51
2022/04/22 06:00:04;;;;;;;9.57;3.80;;;8.40;99.90;;;;;;5069438;28;20048;-51
2022/04/22 06:02:30;;;;;;;8.15;3.40;;;8.50;99.90;;;;;;5070761;28;20610;-50
2022/04/22 06:04:55;;;;;;;6.70;3.08;;;8.70;99.90;;;;;;5070784;28;20037;-50
2022/04/22 06:07:21;;;;;;;12.30;3.63;;;8.70;99.90;;;;;;5070769;28;20047;-50
2022/04/22 06:12:32;;;;;;;7.93;3.40;;;8.90;99.90;;;;;;5070784;28;20097;-50
2022/04/22 06:15:02;;;;;;;9.45;3.05;;;9.00;99.90;;;;;;5070625;28;20485;-52
2022/04/22 06:17:29;;;;;;;7.82;3.25;;;9.00;99.90;;;;;;5063026;28;20032;-53
2022/04/22 06:19:56;;;;;;;7.95;3.40;;;9.00;99.90;;;;;;5050869;28;20501;-48
2022/04/22 06:22:22;;;;;;;7.32;3.05;;;9.10;99.90;;;;;;5047934;28;20389;-55
2022/04/22 06:24:48;;;;;;;7.05;3.30;;;9.10;99.90;;;;;;5030613;28;20052;-53
2022/04/22 06:27:21;;;;;;;6.63;3.20;;;9.20;99.90;;;;;;5030267;28;20342;-51
2022/04/22 06:29:47;;;;;;;7.75;3.42;;;9.30;99.90;;;;;;5028894;28;20044;-49
2022/04/22 06:32:13;;;;;;;8.05;4.20;;;9.40;99.90;;;;;;5030242;28;20041;-50
2022/04/22 06:34:39;;;;;;;8.82;3.55;;;9.50;99.90;;;;;;5030473;28;20034;-49
2022/04/22 06:37:05;;;;;;;9.40;3.47;;;9.50;99.90;;;;;;5030622;28;20080;-49
2022/04/22 06:45:46;;;;;;;8.63;3.78;;;9.60;99.90;;;;;;5030763;28;20375;-49
2022/04/22 06:47:45;;;;;;;7.35;3.17;;;9.70;99.90;;;;;;5070757;28;20037;-50
2022/04/22 06:50:17;;;;;;;7.95;3.17;;;9.80;99.90;;;;;;5069169;28;20473;-51
2022/04/22 06:52:43;;;;;;;6.13;3.10;;;9.80;99.90;;;;;;5070542;28;20052;-52
2022/04/22 06:55:09;;;;;;;7.55;3.22;;;9.90;99.90;;;;;;5070523;28;20040;-49
2022/04/22 06:57:38;;;;;;;7.13;3.10;;;9.90;99.90;;;;;;5070397;28;20374;-53
2022/04/22 07:00:04;;;;;;;7.20;2.80;;;10.10;99.90;;;;;;5070368;28;20037;-51
2022/04/22 07:02:30;;;;;;;9.05;3.47;;;10.00;99.90;;;;;;5068476;28;20041;-51
2022/04/22 07:04:56;;;;;;;7.65;3.05;;;10.10;99.90;;;;;;5070845;28;20079;-51
2022/04/22 07:07:22;;;;;;;7.57;3.45;;;10.10;99.90;;;;;;5070545;28;20073;-50
2022/04/22 07:09:48;;;;;;;7.72;2.92;;;10.20;99.90;;;;;;5070358;28;20040;-52
2022/04/22 07:12:17;;;;;;;8.52;2.90;;;10.30;99.90;;;;;;5070312;28;20047;-50
2022/04/22 07:14:45;;;;;;;12.30;3.10;;;10.40;99.90;;;;;;5069093;28;20052;-49
2022/04/22 07:17:12;;;;;;;8.45;3.08;;;10.40;99.90;;;;;;5070173;28;20055;-52
2022/04/22 07:19:40;;;;;;;8.43;3.17;;;10.40;99.90;;;;;;5070270;28;20076;-52
2022/04/22 07:22:06;;;;;;;7.63;3.38;;;10.60;99.90;;;;;;5069564;28;20045;-52
2022/04/22 07:24:32;;;;;;;7.50;2.90;;;10.60;99.90;;;;;;5050193;28;20037;-51
2022/04/22 07:26:58;;;;;;;7.32;3.05;;;10.70;99.90;;;;;;5065457;28;20037;-50
2022/04/22 07:29:25;;;;;;;7.68;3.17;;;10.80;99.90;;;;;;5050367;28;20056;-53
2022/04/22 07:31:51;;;;;;;8.73;2.90;;;10.80;99.90;;;;;;5050228;28;20418;-51
2022/04/22 07:34:16;;;;;;;7.97;3.53;;;10.90;99.90;;;;;;5050334;28;20041;-51
2022/04/22 07:36:43;;;;;;;8.43;3.10;;;10.90;99.90;;;;;;5050047;28;20087;-50
2022/04/22 07:39:09;;;;;;;5.43;2.70;;;11.00;99.90;;;;;;5050007;28;20128;-51
2022/04/22 07:41:38;;;;;;;9.13;3.30;;;11.00;99.90;;;;;;5050078;28;20143;-52
2022/04/22 07:46:58;;;;;;;9.55;3.05;;;11.10;99.90;;;;;;5069932;28;20059;-50
2022/04/22 07:49:26;;;;;;;9.38;3.50;;;11.20;99.90;;;;;;5069969;28;20138;-54
2022/04/22 07:51:52;;;;;;;7.45;2.90;;;11.20;99.90;;;;;;5070109;28;20047;-52
2022/04/22 07:54:17;;;;;;;9.00;3.45;;;11.20;99.90;;;;;;5070127;28;20037;-50
2022/04/22 07:56:43;;;;;;;8.57;3.20;;;11.30;99.90;;;;;;5069856;28;20408;-51
2022/04/22 07:59:09;;;;;;;10.05;3.72;;;11.20;99.90;;;;;;5068601;28;20059;-53
2022/04/22 08:01:34;;;;;;;10.07;3.30;;;11.40;99.90;;;;;;5069804;28;20048;-50
2022/04/22 08:04:01;;;;;;;8.35;3.10;;;11.50;99.90;;;;;;5069844;28;20037;-53
2022/04/22 08:06:27;;;;;;;8.18;3.47;;;11.70;99.90;;;;;;5069735;28;20142;-50
2022/04/22 08:08:53;;;;;;;9.57;3.60;;;11.70;99.90;;;;;;5068667;28;20086;-50
2022/04/22 08:11:21;;;;;;;8.40;3.53;;;11.70;99.90;;;;;;5069923;28;20041;-50
2022/04/22 08:13:47;;;;;;;8.73;3.10;;;11.70;99.90;;;;;;5070173;28;20493;-49
2022/04/22 08:16:13;;;;;;;8.07;2.90;;;11.70;99.90;;;;;;5073220;28;20071;-49
2022/04/22 08:18:39;;;;;;;9.07;3.33;;;11.80;99.90;;;;;;5073113;28;20068;-50
2022/04/22 08:21:04;;;;;;;7.90;3.00;;;11.90;99.90;;;;;;5073065;28;20075;-50
2022/04/22 08:23:30;;;;;;;8.45;3.42;;;11.90;99.90;;;;;;5057028;28;20087;-49
2022/04/22 08:25:56;;;;;;;8.32;4.13;;;11.90;99.90;;;;;;5042179;28;20045;-49
2022/04/22 08:28:22;;;;;;;6.38;3.00;;;12.10;99.90;;;;;;5041906;28;20516;-51
2022/04/22 08:30:47;;;;;;;8.45;3.45;;;12.20;99.90;;;;;;5041864;28;20041;-51
2022/04/22 08:33:13;;;;;;;7.78;3.13;;;12.20;99.90;;;;;;5034129;28;20052;-51
2022/04/22 08:35:39;;;;;;;9.05;3.30;;;12.30;99.90;;;;;;5033355;28;20033;-49
2022/04/22 08:38:07;;;;;;;9.07;4.45;;;12.40;99.90;;;;;;5044536;28;20041;-54
2022/04/22 08:40:36;;;;;;;8.02;3.22;;;12.40;99.90;;;;;;5053144;28;20108;-52
2022/04/22 08:43:01;;;;;;;7.15;3.17;;;12.60;99.90;;;;;;5068895;28;20063;-52
2022/04/22 08:45:28;;;;;;;8.82;2.95;;;12.50;99.90;;;;;;5052566;28;20037;-50
2022/04/22 08:50:42;;;;;;;7.03;3.40;;;12.60;99.90;;;;;;5032454;28;20052;-53
2022/04/22 08:53:11;;;;;;;7.30;3.00;;;12.70;99.90;;;;;;5032541;28;20044;-54
2022/04/22 08:55:41;;;;;;;9.23;2.85;;;12.80;99.90;;;;;;5032085;28;20045;-52
2022/04/22 08:58:08;;;;;;;8.20;3.38;;;12.90;99.90;;;;;;5031880;28;20041;-50
2022/04/22 09:00:35;;;;;;;6.03;3.00;;;12.90;99.90;;;;;;5032020;28;20112;-50
2022/04/22 09:03:01;;;;;;;6.30;3.03;;;13.00;99.90;;;;;;5032770;28;20082;-50
2022/04/22 09:05:27;;;;;;;8.48;3.35;;;13.00;99.90;;;;;;5032539;28;20486;-50
2022/04/22 09:07:53;;;;;;;8.73;3.10;;;13.00;99.90;;;;;;5031767;28;20046;-52
2022/04/22 09:10:20;;;;;;;7.80;3.28;;;13.10;99.90;;;;;;5032331;28;20095;-49
2022/04/22 09:12:52;;;;;;;6.75;3.10;;;13.20;99.90;;;;;;5032621;28;20048;-51
2022/04/22 09:15:20;;;;;;;10.43;3.35;;;13.20;99.90;;;;;;5032368;28;20041;-50
2022/04/22 09:17:46;;;;;;;7.65;3.35;;;13.30;99.90;;;;;;5032337;28;20453;-51
2022/04/22 09:20:15;;;;;;;7.70;3.22;;;13.30;99.90;;;;;;5032237;28;20125;-54
2022/04/22 09:22:44;;;;;;;8.15;3.40;;;13.40;99.90;;;;;;5036213;28;20037;-53
2022/04/22 09:25:09;;;;;;;8.23;3.05;;;13.40;99.90;;;;;;5051607;28;20072;-50
2022/04/22 09:27:37;;;;;;;7.30;3.03;;;13.50;99.90;;;;;;5052009;28;20467;-52
2022/04/22 09:30:07;;;;;;;10.50;3.72;;;13.50;99.90;;;;;;5051716;28;20477;-49
2022/04/22 09:32:35;;;;;;;6.32;2.92;;;13.60;99.90;;;;;;5051955;28;20154;-50
2022/04/22 09:35:10;;;;;;;8.07;3.47;;;13.60;99.90;;;;;;5051809;28;20437;-49
2022/04/22 09:43:39;;;;;;;8.25;3.00;;;13.70;99.90;;;;;;5055580;28;20055;-50
2022/04/22 09:46:05;;;;;;;8.15;3.20;;;13.70;99.90;;;;;;5071549;28;20048;-53
2022/04/22 09:48:44;;;;;;;9.85;3.40;;;13.80;99.90;;;;;;5071446;28;20033;-51
2022/04/22 09:51:24;;;;;;;8.40;3.58;;;13.80;99.90;;;;;;5071379;28;20049;-52
2022/04/22 09:54:10;;;;;;;10.07;3.05;;;13.80;99.90;;;;;;5069748;28;20063;-50
2022/04/22 09:56:38;;;;;;;8.38;3.15;;;14.00;99.90;;;;;;5042995;28;20401;-52
2022/04/22 09:59:23;;;;;;;6.25;3.22;;;14.00;99.90;;;;;;5032087;28;20060;-53
2022/04/22 10:01:49;;;;;;;7.20;3.22;;;14.00;99.90;;;;;;5031872;28;20438;-51
2022/04/22 10:04:19;;;;;;;8.48;3.20;;;14.20;99.90;;;;;;5031609;28;20050;-52
2022/04/22 10:06:46;;;;;;;7.57;3.20;;;14.20;99.90;;;;;;5030118;28;20049;-49
2022/04/22 10:09:16;;;;;;;7.47;3.15;;;14.20;99.90;;;;;;5031233;28;20099;-52
2022/04/22 10:11:44;;;;;;;11.05;4.15;;;14.20;99.90;;;;;;5029837;28;20045;-51
2022/04/22 10:14:11;;;;;;;7.82;3.40;;;14.20;99.90;;;;;;5031410;28;20053;-50
2022/04/22 10:16:37;;;;;;;8.38;3.30;;;14.40;99.90;;;;;;5046247;28;20413;-50
2022/04/22 10:19:04;;;;;;;8.23;3.78;;;14.40;99.90;;;;;;5031206;28;20087;-52
2022/04/22 10:21:30;;;;;;;7.85;3.72;;;14.50;99.90;;;;;;5030806;28;20045;-52
2022/04/22 10:23:56;;;;;;;12.65;3.60;;;14.50;99.90;;;;;;5046616;28;20393;-52
2022/04/22 10:26:23;;;;;;;9.48;3.60;;;14.40;99.90;;;;;;5050704;28;20052;-49
2022/04/22 10:28:49;;;;;;;9.13;3.67;;;14.60;99.90;;;;;;5066229;28;20086;-51
2022/04/22 10:31:16;;;;;;;7.75;3.58;;;14.60;99.90;;;;;;5050720;28;20060;-48
2022/04/22 10:33:45;;;;;;;9.35;3.53;;;14.70;99.90;;;;;;5050745;28;20048;-53
2022/04/22 10:36:18;;;;;;;7.45;3.40;;;14.60;99.90;;;;;;5083014;28;20060;-50
2022/04/22 10:38:48;;;;;;;8.18;3.90;;;14.70;99.90;;;;;;5049566;28;20033;-48
2022/04/22 10:41:17;;;;;;;8.52;3.80;;;14.80;99.90;;;;;;5050918;28;20033;-52
2022/04/22 10:43:45;;;;;;;8.02;3.60;;;14.70;99.90;;;;;;5056751;28;20071;-49
2022/04/22 10:49:13;;;;;;;9.30;4.30;;;14.70;99.90;;;;;;5070260;28;20095;-50
2022/04/22 10:51:58;;;;;;;;;;;14.50;99.90;;;;;;5070883;28;20119;-49
2022/04/22 10:54:52;;;;;;;8.85;3.85;;;14.70;99.90;;;;;;5070460;28;19916;-52
2022/04/22 10:57:21;;;;;;;6.95;3.40;;;14.90;99.90;;;;;;5069966;28;20455;-53
2022/04/22 11:00:03;;;;;;;8.45;4.38;;;14.90;99.90;;;;;;5070727;28;20109;-52
2022/04/22 11:02:31;;;;;;;8.18;4.05;;;15.00;99.90;;;;;;5069716;28;20135;-50
2022/04/22 11:05:26;;;;;;;8.52;4.18;;;15.00;99.90;;;;;;5070720;28;20123;-53
2022/04/22 11:07:53;;;;;;;8.65;4.30;;;15.10;99.90;;;;;;5060204;28;20139;-51
2022/04/22 11:10:23;;;;;;;8.65;4.30;;;15.10;99.90;;;;;;5070488;28;20075;-49
2022/04/22 11:12:56;;;;;;;7.90;4.07;;;15.00;99.90;;;;;;5070175;28;20029;-49
2022/04/22 11:15:46;;;;;;;9.30;3.67;;;15.20;99.90;;;;;;5070174;28;20041;-54
2022/04/22 11:18:16;;;;;;;11.98;4.40;;;15.30;99.90;;;;;;5070299;28;20115;-52
2022/04/22 11:20:43;;;;;;;7.65;3.90;;;15.30;99.90;;;;;;5070291;28;20041;-51
2022/04/22 11:23:12;;;;;;;6.95;3.60;;;15.30;99.90;;;;;;5060794;28;20436;-53
2022/04/22 11:25:39;;;;;;;9.10;3.67;;;15.40;99.90;;;;;;5050257;28;20051;-53
2022/04/22 11:28:07;;;;;;;8.43;4.50;;;15.50;99.90;;;;;;5048987;28;20045;-52
2022/04/22 11:30:34;;;;;;;9.27;4.10;;;15.50;99.90;;;;;;5065066;28;20504;-53
2022/04/22 11:33:16;;;;;;;7.13;3.45;;;15.60;99.90;;;;;;5049930;28;20041;-52
2022/04/22 11:35:41;;;;;;;8.07;3.78;;;15.70;99.90;;;;;;5049844;28;20029;-53
2022/04/22 11:38:07;;;;;;;8.68;3.83;;;16.10;99.90;;;;;;5050029;28;20043;-49
2022/04/22 11:40:39;;;;;;;11.35;4.95;;;16.00;99.90;;;;;;5049921;28;20044;-50
2022/04/22 11:43:14;;;;;;;10.82;4.15;;;16.00;99.90;;;;;;5050945;28;20542;-51
2022/04/22 11:45:47;;;;;;;9.82;4.22;;;16.00;99.90;;;;;;5070204;28;20051;-50
2022/04/22 11:48:17;;;;;;;9.13;4.53;;;16.00;99.90;;;;;;5070050;28;20047;-50
2022/04/22 11:50:45;;;;;;;8.52;4.25;;;16.10;99.90;;;;;;5073616;28;20048;-49
2022/04/22 11:53:22;;;;;;;9.85;4.75;;;16.00;99.90;;;;;;5072696;28;20388;-51
2022/04/22 11:55:48;;;;;;;11.27;4.63;;;16.10;99.90;;;;;;5074207;28;20124;-50
2022/04/22 11:58:16;;;;;;;9.43;4.80;;;16.20;99.90;;;;;;5074024;28;20051;-50
2022/04/22 12:06:14;;;;;;;8.30;3.97;;;16.40;99.90;;;;;;5069795;28;20055;-50
2022/04/22 12:08:54;;;;;;;8.25;4.63;;;16.30;99.90;;;;;;5042788;28;20554;-52
2022/04/22 12:11:20;;;;;;;9.73;4.70;;;16.30;99.90;;;;;;5048040;28;20079;-51
2022/04/22 12:13:47;;;;;;;8.20;4.05;;;16.40;99.90;;;;;;5053250;28;20045;-51
2022/04/22 12:16:23;;;;;;;8.88;4.53;;;16.40;99.90;;;;;;5051951;28;20049;-53
2022/04/22 12:18:55;;;;;;;7.93;4.68;;;16.30;99.90;;;;;;5052534;28;20033;-53
2022/04/22 12:21:23;;;;;;;8.23;4.40;;;16.50;99.90;;;;;;5068334;28;20076;-51
2022/04/22 12:23:51;;;;;;;9.25;4.50;;;16.60;99.90;;;;;;5038336;28;20080;-53
2022/04/22 12:26:34;;;;;;;9.05;5.22;;;16.60;99.90;;;;;;5033331;28;20045;-52
2022/04/22 12:29:11;;;;;;;8.82;4.43;;;16.70;99.90;;;;;;5033022;28;20051;-52
2022/04/22 12:31:42;;;;;;;7.63;4.47;;;16.60;99.90;;;;;;5033220;28;20107;-49
2022/04/22 12:34:10;;;;;;;7.33;4.10;;;16.70;99.90;;;;;;5033088;28;20080;-49
2022/04/22 12:36:52;;;;;;;9.50;4.60;;;16.70;99.90;;;;;;5031679;28;20049;-49
2022/04/22 12:39:40;;;;;;;8.52;4.32;;;16.70;99.90;;;;;;5032964;28;20391;-49
2022/04/22 12:42:24;;;;;;;8.15;4.43;;;16.80;99.90;;;;;;5032755;28;20188;-50
2022/04/22 12:53:47;;;;;;;10.13;4.70;;;16.80;99.90;;;;;;5072354;28;20082;-49
2022/04/22 12:56:12;;;;;;;11.10;4.50;;;16.90;99.90;;;;;;5072334;28;20074;-51
2022/04/22 12:58:55;;;;;;;10.07;5.03;;;17.00;99.90;;;;;;5072726;28;20025;-50
2022/04/22 13:01:29;;;;;;;9.15;5.40;;;17.10;99.90;;;;;;5071272;28;20143;-51
2022/04/22 13:03:55;;;;;;;9.55;4.68;;;17.30;99.90;;;;;;5072381;28;20041;-53
2022/04/22 13:06:40;;;;;;;9.98;4.53;;;17.30;99.90;;;;;;5072295;28;20055;-50
2022/04/22 13:09:07;;;;;;;9.48;5.40;;;17.30;99.90;;;;;;5070946;28;20072;-50
2022/04/22 13:11:36;;;;;;;8.48;5.45;;;17.30;99.90;;;;;;5072310;28;20045;-53
2022/04/22 13:14:03;;;;;;;9.90;5.05;;;17.30;99.90;;;;;;5072116;28;20051;-53
2022/04/22 13:16:30;;;;;;;11.00;5.55;;;17.30;99.90;;;;;;5070608;28;20072;-51
2022/04/22 13:18:56;;;;;;;10.32;5.25;;;17.30;99.90;;;;;;5070668;28;20526;-52
2022/04/22 13:21:22;;;;;;;11.50;5.65;;;17.30;99.90;;;;;;5072261;28;20037;-51
2022/04/22 13:23:50;;;;;;;10.27;5.40;;;17.40;99.90;;;;;;5057156;28;20040;-53
2022/04/22 13:26:16;;;;;;;10.60;5.25;;;17.30;99.90;;;;;;5052206;28;20052;-51
2022/04/22 13:28:42;;;;;;;11.45;6.10;;;17.30;99.90;;;;;;5051923;28;20119;-49
2022/04/22 13:31:08;;;;;;;12.80;6.15;;;17.40;99.90;;;;;;5051771;28;20156;-50
2022/04/22 13:33:34;;;;;;;10.43;5.78;;;17.40;99.90;;;;;;5051925;28;20041;-50
2022/04/22 13:36:02;;;;;;;8.90;4.95;;;17.60;99.90;;;;;;5053388;28;20134;-50
2022/04/22 13:38:28;;;;;;;8.65;5.55;;;17.40;99.90;;;;;;5068700;28;20050;-50
2022/04/22 13:40:54;;;;;;;8.77;5.70;;;17.40;99.90;;;;;;5053218;28;20044;-52
2022/04/22 13:43:20;;;;;;;13.02;5.80;;;17.40;99.90;;;;;;5056209;28;20044;-49
2022/04/22 13:53:58;;;;;;;9.13;5.25;;;17.80;99.90;;;;;;5072975;28;20048;-53
2022/04/22 13:56:24;;;;;;;9.23;5.22;;;17.70;99.90;;;;;;5072745;28;20303;-51
2022/04/22 13:58:50;;;;;;;11.25;5.15;;;17.70;99.90;;;;;;5072963;28;20397;-50
2022/04/22 14:01:15;;;;;;;8.77;5.63;;;17.60;99.90;;;;;;5072247;28;20040;-51
2022/04/22 14:03:41;;;;;;;9.93;5.85;;;17.60;99.90;;;;;;5072329;28;20041;-52